createdAt,value
2022-10-13T00:03:47.706Z,10.40
2022-10-13T00:08:51.704Z,9.70
2022-10-13T00:14:01.196Z,8.70
2022-10-13T00:19:04.383Z,9.00
2022-10-13T00:24:12.390Z,8.30
2022-10-13T00:29:15.631Z,8.20
2022-10-13T00:34:18.778Z,7.80
2022-10-13T00:39:22.036Z,8.20
2022-10-13T00:44:59.644Z,8.00
2022-10-13T00:50:03.274Z,8.60
2022-10-13T00:55:08.851Z,8.90
2022-10-13T01:00:12.962Z,9.80
2022-10-13T01:05:17.218Z,8.80
2022-10-13T01:10:59.366Z,8.10
2022-10-13T01:16:23.201Z,8.00
2022-10-13T01:21:45.101Z,8.60
2022-10-13T01:26:53.960Z,7.70
2022-10-13T01:32:25.854Z,8.20
2022-10-13T01:37:49.251Z,7.50
2022-10-13T01:43:04.736Z,8.70
2022-10-13T01:48:11.312Z,7.80
2022-10-13T01:53:18.378Z,8.10
2022-10-13T01:58:23.987Z,7.50
2022-10-13T02:03:34.667Z,8.10
2022-10-13T02:09:03.281Z,8.80
2022-10-13T02:14:24.487Z,9.20
2022-10-13T02:19:28.951Z,8.70
2022-10-13T02:24:33.822Z,10.20
2022-10-13T02:29:50.443Z,8.50
2022-10-13T02:34:53.551Z,10.30
2022-10-13T02:39:56.730Z,9.00
2022-10-13T02:44:59.845Z,9.10
2022-10-13T02:50:03.535Z,8.60
2022-10-13T02:55:12.847Z,7.40
2022-10-13T03:00:17.243Z,7.60
2022-10-13T03:05:20.376Z,7.00
2022-10-13T03:10:23.828Z,6.90
2022-10-13T03:15:27.073Z,7.00
2022-10-13T03:20:30.286Z,6.90
2022-10-13T03:25:34.591Z,5.70
2022-10-13T03:30:37.826Z,6.30
2022-10-13T03:35:41.157Z,5.90
2022-10-13T03:40:44.255Z,5.10
2022-10-13T03:46:05.203Z,5.40
2022-10-13T03:51:11.710Z,5.80
2022-10-13T03:56:20.181Z,5.50
2022-10-13T04:01:25.922Z,5.40
2022-10-13T04:06:30.923Z,5.50
2022-10-13T04:11:34.344Z,5.80
2022-10-13T04:16:40.498Z,5.50
2022-10-13T04:21:45.017Z,5.80
2022-10-13T04:26:48.215Z,6.10
2022-10-13T04:31:51.449Z,5.40
2022-10-13T04:36:54.584Z,6.70
2022-10-13T04:41:57.714Z,6.80
2022-10-13T04:47:01.739Z,6.00
2022-10-13T04:52:04.856Z,5.70
2022-10-13T04:57:08.125Z,5.70
2022-10-13T05:02:12.257Z,6.30
2022-10-13T05:07:18.508Z,7.20
2022-10-13T05:12:22.362Z,7.20
2022-10-13T05:17:25.847Z,6.60
2022-10-13T05:22:29.087Z,7.70
2022-10-13T05:27:32.482Z,6.80
2022-10-13T05:32:36.278Z,6.50
2022-10-13T05:37:39.401Z,6.20
2022-10-13T05:42:42.495Z,6.30
2022-10-13T05:47:46.208Z,6.00
2022-10-13T05:52:50.593Z,7.00
2022-10-13T05:57:53.722Z,6.00
2022-10-13T06:03:13.156Z,6.80
2022-10-13T06:08:17.912Z,6.70
2022-10-13T06:13:21.114Z,6.60
2022-10-13T06:18:24.390Z,6.10
2022-10-13T06:23:28.540Z,6.40
2022-10-13T06:28:31.823Z,7.70
2022-10-13T06:33:35.460Z,9.00
2022-10-13T06:38:39.183Z,8.80
2022-10-13T06:43:42.720Z,7.70
2022-10-13T06:48:45.927Z,6.80
2022-10-13T06:53:49.519Z,6.40
2022-10-13T06:58:52.926Z,7.30
2022-10-13T07:03:56.414Z,7.10
2022-10-13T07:08:59.718Z,6.70
2022-10-13T07:14:03.652Z,6.30
2022-10-13T07:19:07.081Z,6.10
2022-10-13T07:24:12.042Z,5.30
2022-10-13T07:29:16.585Z,5.20
2022-10-13T07:34:23.779Z,3.30
2022-10-13T07:39:26.955Z,3.40
2022-10-13T07:44:30.342Z,3.00
2022-10-13T07:49:33.470Z,2.80
2022-10-13T07:54:36.581Z,2.50
2022-10-13T07:59:39.792Z,2.70
2022-10-13T08:04:43.052Z,2.40
2022-10-13T08:09:46.983Z,3.10
2022-10-13T08:14:53.536Z,2.70
2022-10-13T08:19:56.851Z,2.70
2022-10-13T08:25:02.231Z,2.80
2022-10-13T08:30:06.521Z,2.40
2022-10-13T08:35:10.665Z,3.50
2022-10-13T08:40:19.775Z,2.90
2022-10-13T08:45:40.852Z,2.80
2022-10-13T08:50:48.565Z,2.70
2022-10-13T08:55:56.952Z,3.00
2022-10-13T09:01:09.155Z,3.10
2022-10-13T09:06:21.935Z,2.80
2022-10-13T09:11:34.973Z,2.40
2022-10-13T09:16:44.126Z,3.00
2022-10-13T09:21:48.601Z,2.90
2022-10-13T09:27:12.436Z,2.40
2022-10-13T09:32:22.481Z,1.90
2022-10-13T09:37:26.950Z,2.30
2022-10-13T09:42:32.291Z,2.80
2022-10-13T09:47:36.048Z,2.20
2022-10-13T09:52:39.277Z,2.10
2022-10-13T09:57:49.306Z,2.70
2022-10-13T10:03:23.958Z,3.00
2022-10-13T10:09:03.865Z,12.40
2022-10-13T10:14:33.718Z,3.00
2022-10-13T10:19:52.323Z,3.30
2022-10-13T10:25:26.168Z,2.60
2022-10-13T10:30:31.459Z,2.50
2022-10-13T10:35:58.271Z,2.60
2022-10-13T10:41:20.789Z,2.70
2022-10-13T10:46:29.013Z,2.50
2022-10-13T10:51:37.338Z,2.20
2022-10-13T10:57:15.255Z,2.30
2022-10-13T11:02:55.410Z,2.10
2022-10-13T11:08:03.336Z,2.30
2022-10-13T11:13:17.729Z,2.10
2022-10-13T11:18:55.407Z,2.50
2022-10-13T11:24:01.898Z,2.00
2022-10-13T11:29:17.344Z,2.20
2022-10-13T11:34:32.292Z,2.60
2022-10-13T11:39:55.867Z,2.10
2022-10-13T11:45:30.117Z,2.50
2022-10-13T11:50:49.882Z,2.90
2022-10-13T11:56:04.171Z,2.60
2022-10-13T12:01:14.275Z,2.50
2022-10-13T12:06:35.226Z,3.00
2022-10-13T12:11:38.608Z,2.50
2022-10-13T12:22:03.976Z,2.60
2022-10-13T12:27:21.664Z,3.90
2022-10-13T12:32:29.557Z,4.80
2022-10-13T12:37:34.613Z,3.60
2022-10-13T12:42:39.389Z,5.30
2022-10-13T12:47:45.596Z,4.90
2022-10-13T12:52:50.617Z,3.60
2022-10-13T12:57:53.950Z,3.40
2022-10-13T13:03:01.166Z,2.50
2022-10-13T13:08:24.348Z,3.20
2022-10-13T13:13:27.961Z,3.00
2022-10-13T13:18:39.940Z,3.20
2022-10-13T13:23:51.085Z,2.60
2022-10-13T13:28:57.210Z,3.00
2022-10-13T13:34:00.342Z,3.00
2022-10-13T13:39:04.304Z,3.50
2022-10-13T13:44:07.398Z,3.20
2022-10-13T13:49:12.128Z,3.80
2022-10-13T13:54:15.418Z,4.00
2022-10-13T13:59:18.961Z,4.10
2022-10-13T14:04:22.887Z,3.80
2022-10-13T14:09:26.170Z,4.10
2022-10-13T14:14:33.532Z,4.00
2022-10-13T14:19:36.829Z,3.90
2022-10-13T14:24:39.900Z,3.90
2022-10-13T14:29:43.128Z,3.80
2022-10-13T14:34:46.236Z,4.30
2022-10-13T14:39:49.394Z,4.30
2022-10-13T14:44:52.495Z,5.30
2022-10-13T14:49:55.687Z,5.50
2022-10-13T14:54:58.886Z,5.30
2022-10-13T15:00:02.798Z,5.40
2022-10-13T15:05:06.923Z,4.90
2022-10-13T15:10:10.731Z,5.20
2022-10-13T15:15:13.998Z,5.10
2022-10-13T15:20:17.232Z,5.20
2022-10-13T15:25:20.361Z,5.60
2022-10-13T15:30:23.474Z,5.00
2022-10-13T15:35:31.301Z,5.90
2022-10-13T15:40:36.249Z,5.10
2022-10-13T15:45:41.171Z,5.50
2022-10-13T15:50:44.765Z,5.80
2022-10-13T15:55:48.890Z,8.40
2022-10-13T16:00:52.383Z,10.00
2022-10-13T16:05:56.757Z,10.60
2022-10-13T16:10:59.930Z,11.20
2022-10-13T16:16:04.188Z,10.20
2022-10-13T16:21:18.612Z,11.50
2022-10-13T16:26:22.588Z,14.70
2022-10-13T16:31:25.869Z,20.20
2022-10-13T16:36:29.001Z,14.10
2022-10-13T16:41:33.246Z,13.70
2022-10-13T16:46:36.437Z,15.90
2022-10-13T16:51:40.837Z,16.70
2022-10-13T16:56:43.981Z,22.70
2022-10-13T17:01:47.726Z,23.70
2022-10-13T17:06:50.840Z,21.20
2022-10-13T17:11:54.090Z,20.80
2022-10-13T17:16:58.154Z,19.20
2022-10-13T17:22:01.541Z,18.80
2022-10-13T17:27:04.824Z,18.00
2022-10-13T17:32:08.197Z,19.10
2022-10-13T17:37:11.512Z,15.30
2022-10-13T17:42:14.574Z,14.00
2022-10-13T17:47:18.119Z,13.30
2022-10-13T17:52:21.692Z,12.60
2022-10-13T17:57:24.801Z,13.90
2022-10-13T18:02:27.980Z,15.00
2022-10-13T18:07:31.361Z,12.50
2022-10-13T18:12:34.505Z,13.20
2022-10-13T18:17:37.714Z,13.10
2022-10-13T18:22:40.847Z,13.10
2022-10-13T18:27:44.068Z,13.20
2022-10-13T18:32:47.256Z,15.00
2022-10-13T18:37:52.444Z,15.90
2022-10-13T18:42:56.289Z,16.90
2022-10-13T18:47:59.370Z,14.60
2022-10-13T18:53:02.497Z,13.60
2022-10-13T18:58:05.590Z,15.60
2022-10-13T19:03:09.505Z,13.50
2022-10-13T19:08:12.691Z,16.10
2022-10-13T19:13:16.159Z,14.00
2022-10-13T19:18:19.435Z,12.30
2022-10-13T19:23:22.772Z,12.40
2022-10-13T19:28:26.066Z,12.10
2022-10-13T19:33:30.168Z,11.40
2022-10-13T19:38:33.626Z,10.40
2022-10-13T19:43:36.736Z,10.30
2022-10-13T19:48:40.076Z,9.70
2022-10-13T19:53:43.354Z,12.00
2022-10-13T19:58:46.590Z,12.00
2022-10-13T20:03:50.246Z,12.30
2022-10-13T20:08:53.840Z,13.10
2022-10-13T20:13:56.990Z,13.10
2022-10-13T20:19:01.694Z,12.60
2022-10-13T20:24:04.889Z,12.20
2022-10-13T20:29:08.572Z,10.40
2022-10-13T20:34:12.345Z,11.00
2022-10-13T20:39:15.589Z,10.90
2022-10-13T20:44:18.809Z,10.80
2022-10-13T20:49:22.040Z,10.20
2022-10-13T20:54:25.121Z,10.10
2022-10-13T20:59:28.366Z,10.30
2022-10-13T21:04:31.486Z,11.60
2022-10-13T21:09:36.994Z,10.80
2022-10-13T21:14:40.401Z,10.70
2022-10-13T21:19:44.167Z,10.40
2022-10-13T21:24:47.318Z,9.90
2022-10-13T21:29:50.445Z,9.70
2022-10-13T21:34:54.384Z,11.00
2022-10-13T21:39:57.671Z,11.30
2022-10-13T21:45:00.834Z,10.30
2022-10-13T21:50:05.174Z,11.20
2022-10-13T21:55:09.119Z,10.00
2022-10-13T22:00:12.948Z,9.40
2022-10-13T22:05:16.133Z,9.60
2022-10-13T22:10:19.263Z,9.50
2022-10-13T22:15:22.309Z,9.80
2022-10-13T22:20:26.092Z,9.10
2022-10-13T22:25:29.143Z,9.90
2022-10-13T22:30:32.366Z,9.90
2022-10-13T22:35:36.291Z,10.50
2022-10-13T22:40:40.218Z,10.00
2022-10-13T22:45:51.745Z,11.40
2022-10-13T22:50:55.072Z,10.90
2022-10-13T22:55:58.284Z,11.00
2022-10-13T23:01:10.094Z,10.00
2022-10-13T23:06:14.997Z,10.60
2022-10-13T23:11:19.387Z,10.20
2022-10-13T23:16:26.003Z,9.70
2022-10-13T23:21:30.506Z,10.80
2022-10-13T23:26:34.725Z,9.00
2022-10-13T23:31:39.099Z,9.70
2022-10-13T23:36:42.236Z,10.00
2022-10-13T23:41:45.307Z,10.10
2022-10-13T23:46:48.482Z,10.30
2022-10-13T23:51:51.774Z,9.50
2022-10-13T23:56:54.905Z,9.90
